sensor_id;sensor_type;location;lat;lon;timestamp;P1;durP1;ratioP1;P2;durP2;ratioP2
44508;SDS011;30214;52.246;14.408;2022-11-20T00:02:22;24.02;;;13.68;;
44508;SDS011;30214;52.246;14.408;2022-11-20T00:04:51;21.95;;;13.77;;
44508;SDS011;30214;52.246;14.408;2022-11-20T00:07:18;23.50;;;13.43;;
44508;SDS011;30214;52.246;14.408;2022-11-20T00:09:45;22.30;;;13.77;;
44508;SDS011;30214;52.246;14.408;2022-11-20T00:12:14;21.67;;;13.80;;
44508;SDS011;30214;52.246;14.408;2022-11-20T00:14:41;21.70;;;13.60;;
44508;SDS011;30214;52.246;14.408;2022-11-20T00:17:08;23.98;;;14.77;;
44508;SDS011;30214;52.246;14.408;2022-11-20T00:19:35;23.65;;;14.88;;
44508;SDS011;30214;52.246;14.408;2022-11-20T00:22:02;21.80;;;13.35;;
44508;SDS011;30214;52.246;14.408;2022-11-20T00:24:29;23.95;;;14.25;;
44508;SDS011;30214;52.246;14.408;2022-11-20T00:26:57;22.75;;;13.82;;
44508;SDS011;30214;52.246;14.408;2022-11-20T00:29:25;24.13;;;14.20;;
44508;SDS011;30214;52.246;14.408;2022-11-20T00:31:53;20.50;;;14.23;;
44508;SDS011;30214;52.246;14.408;2022-11-20T00:34:20;21.35;;;14.23;;
44508;SDS011;30214;52.246;14.408;2022-11-20T00:36:47;22.85;;;15.27;;
44508;SDS011;30214;52.246;14.408;2022-11-20T00:39:14;22.10;;;13.40;;
44508;SDS011;30214;52.246;14.408;2022-11-20T00:41:42;21.30;;;14.55;;
44508;SDS011;30214;52.246;14.408;2022-11-20T00:44:09;20.42;;;13.02;;
44508;SDS011;30214;52.246;14.408;2022-11-20T00:46:38;21.25;;;13.93;;
44508;SDS011;30214;52.246;14.408;2022-11-20T00:49:05;20.73;;;13.75;;
44508;SDS011;30214;52.246;14.408;2022-11-20T00:51:32;22.58;;;13.02;;
44508;SDS011;30214;52.246;14.408;2022-11-20T00:54:00;20.23;;;13.13;;
44508;SDS011;30214;52.246;14.408;2022-11-20T00:56:27;25.60;;;13.07;;
44508;SDS011;30214;52.246;14.408;2022-11-20T00:58:54;20.83;;;13.40;;
44508;SDS011;30214;52.246;14.408;2022-11-20T01:01:22;22.05;;;13.95;;
44508;SDS011;30214;52.246;14.408;2022-11-20T01:03:55;20.80;;;12.93;;
44508;SDS011;30214;52.246;14.408;2022-11-20T01:06:25;21.67;;;13.60;;
44508;SDS011;30214;52.246;14.408;2022-11-20T01:08:55;21.38;;;13.55;;
44508;SDS011;30214;52.246;14.408;2022-11-20T01:11:24;22.52;;;13.48;;
44508;SDS011;30214;52.246;14.408;2022-11-20T01:13:54;19.95;;;13.02;;
44508;SDS011;30214;52.246;14.408;2022-11-20T01:16:24;18.40;;;12.98;;
44508;SDS011;30214;52.246;14.408;2022-11-20T01:18:56;19.55;;;12.10;;
44508;SDS011;30214;52.246;14.408;2022-11-20T01:21:26;19.17;;;12.50;;
44508;SDS011;30214;52.246;14.408;2022-11-20T01:23:56;19.23;;;12.52;;
44508;SDS011;30214;52.246;14.408;2022-11-20T01:26:25;22.65;;;13.18;;
44508;SDS011;30214;52.246;14.408;2022-11-20T01:28:55;19.08;;;12.18;;
44508;SDS011;30214;52.246;14.408;2022-11-20T01:31:25;20.90;;;12.65;;
44508;SDS011;30214;52.246;14.408;2022-11-20T01:33:56;17.23;;;11.45;;
44508;SDS011;30214;52.246;14.408;2022-11-20T01:36:26;19.70;;;11.77;;
44508;SDS011;30214;52.246;14.408;2022-11-20T01:38:56;17.83;;;11.70;;
44508;SDS011;30214;52.246;14.408;2022-11-20T01:41:26;17.15;;;11.27;;
44508;SDS011;30214;52.246;14.408;2022-11-20T01:44:15;17.20;;;11.60;;
44508;SDS011;30214;52.246;14.408;2022-11-20T01:46:48;17.80;;;11.23;;
44508;SDS011;30214;52.246;14.408;2022-11-20T01:49:25;18.48;;;12.38;;
44508;SDS011;30214;52.246;14.408;2022-11-20T01:52:07;17.73;;;11.40;;
44508;SDS011;30214;52.246;14.408;2022-11-20T01:54:43;18.98;;;12.32;;
44508;SDS011;30214;52.246;14.408;2022-11-20T01:57:14;16.63;;;11.10;;
44508;SDS011;30214;52.246;14.408;2022-11-20T01:59:44;17.05;;;10.90;;
44508;SDS011;30214;52.246;14.408;2022-11-20T02:02:18;20.65;;;11.55;;
44508;SDS011;30214;52.246;14.408;2022-11-20T02:04:47;20.42;;;11.82;;
44508;SDS011;30214;52.246;14.408;2022-11-20T02:07:15;20.30;;;11.00;;
44508;SDS011;30214;52.246;14.408;2022-11-20T02:09:44;17.02;;;10.73;;
44508;SDS011;30214;52.246;14.408;2022-11-20T02:12:11;16.48;;;10.68;;
44508;SDS011;30214;52.246;14.408;2022-11-20T02:14:58;17.42;;;10.32;;
44508;SDS011;30214;52.246;14.408;2022-11-20T02:17:24;17.17;;;11.25;;
44508;SDS011;30214;52.246;14.408;2022-11-20T02:19:53;17.60;;;11.00;;
44508;SDS011;30214;52.246;14.408;2022-11-20T02:22:21;17.40;;;10.32;;
44508;SDS011;30214;52.246;14.408;2022-11-20T02:24:56;16.60;;;10.45;;
44508;SDS011;30214;52.246;14.408;2022-11-20T02:27:26;17.42;;;10.38;;
44508;SDS011;30214;52.246;14.408;2022-11-20T02:29:56;17.73;;;10.85;;
44508;SDS011;30214;52.246;14.408;2022-11-20T02:32:27;17.13;;;10.05;;
44508;SDS011;30214;52.246;14.408;2022-11-20T02:34:57;15.80;;;10.43;;
44508;SDS011;30214;52.246;14.408;2022-11-20T02:37:35;17.20;;;10.55;;
44508;SDS011;30214;52.246;14.408;2022-11-20T02:40:08;16.25;;;11.10;;
44508;SDS011;30214;52.246;14.408;2022-11-20T02:42:36;16.58;;;10.75;;
44508;SDS011;30214;52.246;14.408;2022-11-20T02:45:04;16.48;;;10.50;;
44508;SDS011;30214;52.246;14.408;2022-11-20T02:47:32;17.77;;;9.88;;
44508;SDS011;30214;52.246;14.408;2022-11-20T02:50:00;14.88;;;9.55;;
44508;SDS011;30214;52.246;14.408;2022-11-20T02:52:27;16.70;;;9.60;;
44508;SDS011;30214;52.246;14.408;2022-11-20T02:54:54;16.48;;;10.05;;
44508;SDS011;30214;52.246;14.408;2022-11-20T02:57:23;16.27;;;9.85;;
44508;SDS011;30214;52.246;14.408;2022-11-20T02:59:50;14.85;;;9.88;;
44508;SDS011;30214;52.246;14.408;2022-11-20T03:02:17;14.13;;;9.57;;
44508;SDS011;30214;52.246;14.408;2022-11-20T03:04:44;15.05;;;9.98;;
44508;SDS011;30214;52.246;14.408;2022-11-20T03:07:11;17.02;;;9.60;;
44508;SDS011;30214;52.246;14.408;2022-11-20T03:09:38;16.52;;;9.50;;
44508;SDS011;30214;52.246;14.408;2022-11-20T03:12:05;14.50;;;9.43;;
44508;SDS011;30214;52.246;14.408;2022-11-20T03:14:34;17.23;;;9.85;;
44508;SDS011;30214;52.246;14.408;2022-11-20T03:17:01;15.45;;;9.30;;
44508;SDS011;30214;52.246;14.408;2022-11-20T03:19:29;16.95;;;9.93;;
44508;SDS011;30214;52.246;14.408;2022-11-20T03:21:56;16.02;;;9.27;;
44508;SDS011;30214;52.246;14.408;2022-11-20T03:24:23;14.95;;;9.40;;
44508;SDS011;30214;52.246;14.408;2022-11-20T03:26:50;15.52;;;9.60;;
44508;SDS011;30214;52.246;14.408;2022-11-20T03:29:17;13.38;;;8.55;;
44508;SDS011;30214;52.246;14.408;2022-11-20T03:31:45;14.02;;;8.45;;
44508;SDS011;30214;52.246;14.408;2022-11-20T03:34:12;14.27;;;9.57;;
44508;SDS011;30214;52.246;14.408;2022-11-20T03:36:40;20.45;;;12.52;;
44508;SDS011;30214;52.246;14.408;2022-11-20T03:39:08;16.70;;;10.77;;
44508;SDS011;30214;52.246;14.408;2022-11-20T03:41:37;15.05;;;9.57;;
44508;SDS011;30214;52.246;14.408;2022-11-20T03:44:07;14.18;;;9.23;;
44508;SDS011;30214;52.246;14.408;2022-11-20T03:46:36;14.50;;;9.10;;
44508;SDS011;30214;52.246;14.408;2022-11-20T03:49:05;13.77;;;8.93;;
44508;SDS011;30214;52.246;14.408;2022-11-20T03:51:33;13.18;;;8.93;;
44508;SDS011;30214;52.246;14.408;2022-11-20T03:54:02;13.85;;;8.82;;
44508;SDS011;30214;52.246;14.408;2022-11-20T03:56:35;14.10;;;8.87;;
44508;SDS011;30214;52.246;14.408;2022-11-20T03:59:05;14.50;;;8.82;;
44508;SDS011;30214;52.246;14.408;2022-11-20T04:01:33;14.13;;;8.95;;
44508;SDS011;30214;52.246;14.408;2022-11-20T04:04:03;12.98;;;9.02;;
44508;SDS011;30214;52.246;14.408;2022-11-20T04:06:33;13.63;;;8.98;;
44508;SDS011;30214;52.246;14.408;2022-11-20T04:09:03;13.32;;;8.93;;
44508;SDS011;30214;52.246;14.408;2022-11-20T04:11:32;12.30;;;8.40;;
44508;SDS011;30214;52.246;14.408;2022-11-20T04:14:01;13.35;;;8.57;;
44508;SDS011;30214;52.246;14.408;2022-11-20T04:16:31;14.15;;;8.40;;
44508;SDS011;30214;52.246;14.408;2022-11-20T04:19:02;12.88;;;8.77;;
44508;SDS011;30214;52.246;14.408;2022-11-20T04:21:32;14.15;;;9.05;;
44508;SDS011;30214;52.246;14.408;2022-11-20T04:23:59;13.90;;;9.35;;
44508;SDS011;30214;52.246;14.408;2022-11-20T04:26:27;13.73;;;9.13;;
44508;SDS011;30214;52.246;14.408;2022-11-20T04:28:59;14.35;;;8.65;;
44508;SDS011;30214;52.246;14.408;2022-11-20T04:31:28;14.38;;;9.10;;
44508;SDS011;30214;52.246;14.408;2022-11-20T04:33:58;14.63;;;9.05;;
44508;SDS011;30214;52.246;14.408;2022-11-20T04:36:27;14.98;;;9.50;;
44508;SDS011;30214;52.246;14.408;2022-11-20T04:38:57;15.70;;;9.75;;
44508;SDS011;30214;52.246;14.408;2022-11-20T04:41:27;17.88;;;9.52;;
44508;SDS011;30214;52.246;14.408;2022-11-20T04:43:57;14.15;;;9.63;;
44508;SDS011;30214;52.246;14.408;2022-11-20T04:46:28;16.90;;;10.05;;
44508;SDS011;30214;52.246;14.408;2022-11-20T04:48:57;16.45;;;9.68;;
44508;SDS011;30214;52.246;14.408;2022-11-20T04:51:25;15.15;;;9.98;;
44508;SDS011;30214;52.246;14.408;2022-11-20T04:53:53;13.68;;;9.70;;
44508;SDS011;30214;52.246;14.408;2022-11-20T04:56:21;14.50;;;9.65;;
44508;SDS011;30214;52.246;14.408;2022-11-20T04:58:48;14.45;;;9.70;;
44508;SDS011;30214;52.246;14.408;2022-11-20T05:01:17;17.27;;;9.80;;
44508;SDS011;30214;52.246;14.408;2022-11-20T05:03:46;15.82;;;10.13;;
44508;SDS011;30214;52.246;14.408;2022-11-20T05:06:13;15.85;;;9.48;;
44508;SDS011;30214;52.246;14.408;2022-11-20T05:08:44;16.73;;;10.18;;
44508;SDS011;30214;52.246;14.408;2022-11-20T05:11:12;16.75;;;10.48;;
44508;SDS011;30214;52.246;14.408;2022-11-20T05:13:42;16.88;;;10.25;;
44508;SDS011;30214;52.246;14.408;2022-11-20T05:16:09;15.93;;;9.70;;
44508;SDS011;30214;52.246;14.408;2022-11-20T05:18:38;15.40;;;10.35;;
44508;SDS011;30214;52.246;14.408;2022-11-20T05:21:07;17.05;;;11.13;;
44508;SDS011;30214;52.246;14.408;2022-11-20T05:23:36;15.45;;;10.07;;
44508;SDS011;30214;52.246;14.408;2022-11-20T05:26:03;18.48;;;10.88;;
44508;SDS011;30214;52.246;14.408;2022-11-20T05:28:32;17.13;;;10.88;;
44508;SDS011;30214;52.246;14.408;2022-11-20T05:31:05;17.60;;;11.27;;
44508;SDS011;30214;52.246;14.408;2022-11-20T05:33:33;18.17;;;11.43;;
44508;SDS011;30214;52.246;14.408;2022-11-20T05:36:00;17.95;;;12.10;;
44508;SDS011;30214;52.246;14.408;2022-11-20T05:38:28;17.17;;;11.35;;
44508;SDS011;30214;52.246;14.408;2022-11-20T05:41:02;17.15;;;11.02;;
44508;SDS011;30214;52.246;14.408;2022-11-20T05:43:31;17.45;;;12.10;;
44508;SDS011;30214;52.246;14.408;2022-11-20T05:46:00;17.92;;;10.52;;
44508;SDS011;30214;52.246;14.408;2022-11-20T05:48:29;20.08;;;11.63;;
44508;SDS011;30214;52.246;14.408;2022-11-20T05:50:57;17.20;;;10.95;;
44508;SDS011;30214;52.246;14.408;2022-11-20T05:53:26;18.23;;;11.63;;
44508;SDS011;30214;52.246;14.408;2022-11-20T05:55:57;17.90;;;10.98;;
44508;SDS011;30214;52.246;14.408;2022-11-20T05:58:25;20.27;;;10.98;;
44508;SDS011;30214;52.246;14.408;2022-11-20T06:00:52;17.60;;;10.73;;
44508;SDS011;30214;52.246;14.408;2022-11-20T06:03:20;17.38;;;11.40;;
44508;SDS011;30214;52.246;14.408;2022-11-20T06:05:48;20.10;;;12.10;;
44508;SDS011;30214;52.246;14.408;2022-11-20T06:08:15;18.25;;;11.23;;
44508;SDS011;30214;52.246;14.408;2022-11-20T06:10:43;17.40;;;11.07;;
44508;SDS011;30214;52.246;14.408;2022-11-20T06:13:10;23.23;;;11.85;;
44508;SDS011;30214;52.246;14.408;2022-11-20T06:15:37;19.88;;;12.18;;
44508;SDS011;30214;52.246;14.408;2022-11-20T06:18:05;20.95;;;13.05;;
44508;SDS011;30214;52.246;14.408;2022-11-20T06:20:32;19.73;;;11.95;;
44508;SDS011;30214;52.246;14.408;2022-11-20T06:23:00;19.17;;;12.70;;
44508;SDS011;30214;52.246;14.408;2022-11-20T06:25:27;20.23;;;12.10;;
44508;SDS011;30214;52.246;14.408;2022-11-20T06:27:54;18.55;;;11.93;;
44508;SDS011;30214;52.246;14.408;2022-11-20T06:30:21;20.25;;;12.85;;
44508;SDS011;30214;52.246;14.408;2022-11-20T06:32:49;21.08;;;13.27;;
44508;SDS011;30214;52.246;14.408;2022-11-20T06:35:16;17.55;;;11.63;;
44508;SDS011;30214;52.246;14.408;2022-11-20T06:37:43;17.25;;;11.45;;
44508;SDS011;30214;52.246;14.408;2022-11-20T06:40:13;21.30;;;13.13;;
44508;SDS011;30214;52.246;14.408;2022-11-20T06:42:40;18.63;;;12.10;;
44508;SDS011;30214;52.246;14.408;2022-11-20T06:45:07;23.77;;;13.82;;
44508;SDS011;30214;52.246;14.408;2022-11-20T06:47:35;24.27;;;13.85;;
44508;SDS011;30214;52.246;14.408;2022-11-20T06:50:03;22.67;;;14.20;;
44508;SDS011;30214;52.246;14.408;2022-11-20T06:52:30;23.77;;;14.48;;
44508;SDS011;30214;52.246;14.408;2022-11-20T06:54:57;24.40;;;13.43;;
44508;SDS011;30214;52.246;14.408;2022-11-20T06:57:26;19.13;;;12.40;;
44508;SDS011;30214;52.246;14.408;2022-11-20T06:59:54;19.92;;;12.32;;
44508;SDS011;30214;52.246;14.408;2022-11-20T07:02:21;19.30;;;12.20;;
44508;SDS011;30214;52.246;14.408;2022-11-20T07:04:50;20.00;;;12.55;;
44508;SDS011;30214;52.246;14.408;2022-11-20T07:07:17;21.27;;;12.95;;
44508;SDS011;30214;52.246;14.408;2022-11-20T07:09:44;22.42;;;12.45;;
44508;SDS011;30214;52.246;14.408;2022-11-20T07:12:11;23.15;;;12.65;;
44508;SDS011;30214;52.246;14.408;2022-11-20T07:14:40;23.42;;;13.20;;
44508;SDS011;30214;52.246;14.408;2022-11-20T07:17:07;21.17;;;13.00;;
44508;SDS011;30214;52.246;14.408;2022-11-20T07:19:34;23.73;;;13.80;;
44508;SDS011;30214;52.246;14.408;2022-11-20T07:22:01;20.73;;;12.68;;
44508;SDS011;30214;52.246;14.408;2022-11-20T07:24:28;23.17;;;13.18;;
44508;SDS011;30214;52.246;14.408;2022-11-20T07:26:55;20.10;;;12.23;;
44508;SDS011;30214;52.246;14.408;2022-11-20T07:29:22;22.58;;;13.15;;
44508;SDS011;30214;52.246;14.408;2022-11-20T07:31:51;19.42;;;12.50;;
44508;SDS011;30214;52.246;14.408;2022-11-20T07:34:18;22.95;;;13.55;;
44508;SDS011;30214;52.246;14.408;2022-11-20T07:36:45;23.65;;;13.18;;
44508;SDS011;30214;52.246;14.408;2022-11-20T07:39:12;20.85;;;13.40;;
44508;SDS011;30214;52.246;14.408;2022-11-20T07:41:39;22.00;;;13.15;;
44508;SDS011;30214;52.246;14.408;2022-11-20T07:44:06;22.45;;;13.70;;
44508;SDS011;30214;52.246;14.408;2022-11-20T07:46:33;23.63;;;14.25;;
44508;SDS011;30214;52.246;14.408;2022-11-20T07:49:02;20.98;;;12.82;;
44508;SDS011;30214;52.246;14.408;2022-11-20T07:51:29;20.63;;;13.00;;
44508;SDS011;30214;52.246;14.408;2022-11-20T07:53:56;25.52;;;15.45;;
44508;SDS011;30214;52.246;14.408;2022-11-20T07:56:23;22.73;;;14.90;;
44508;SDS011;30214;52.246;14.408;2022-11-20T07:58:50;23.55;;;14.30;;
44508;SDS011;30214;52.246;14.408;2022-11-20T08:01:17;22.60;;;14.43;;
44508;SDS011;30214;52.246;14.408;2022-11-20T08:03:44;22.98;;;14.05;;
44508;SDS011;30214;52.246;14.408;2022-11-20T08:06:13;21.45;;;13.73;;
44508;SDS011;30214;52.246;14.408;2022-11-20T08:08:40;24.60;;;14.02;;
44508;SDS011;30214;52.246;14.408;2022-11-20T08:11:07;23.70;;;14.65;;
44508;SDS011;30214;52.246;14.408;2022-11-20T08:13:52;24.40;;;14.25;;
44508;SDS011;30214;52.246;14.408;2022-11-20T08:19:28;28.33;;;17.10;;
44508;SDS011;30214;52.246;14.408;2022-11-20T08:21:57;24.55;;;15.35;;
44508;SDS011;30214;52.246;14.408;2022-11-20T08:24:24;25.00;;;14.73;;
44508;SDS011;30214;52.246;14.408;2022-11-20T08:26:52;25.08;;;15.48;;
44508;SDS011;30214;52.246;14.408;2022-11-20T08:29:20;22.55;;;13.95;;
44508;SDS011;30214;52.246;14.408;2022-11-20T08:31:48;30.00;;;14.85;;
44508;SDS011;30214;52.246;14.408;2022-11-20T08:34:24;25.85;;;15.45;;
44508;SDS011;30214;52.246;14.408;2022-11-20T08:36:58;24.92;;;14.77;;
44508;SDS011;30214;52.246;14.408;2022-11-20T08:39:27;24.90;;;14.98;;
44508;SDS011;30214;52.246;14.408;2022-11-20T08:41:55;25.27;;;15.15;;
44508;SDS011;30214;52.246;14.408;2022-11-20T08:44:22;27.60;;;15.00;;
44508;SDS011;30214;52.246;14.408;2022-11-20T08:46:50;24.80;;;15.25;;
44508;SDS011;30214;52.246;14.408;2022-11-20T08:49:19;28.30;;;15.63;;
44508;SDS011;30214;52.246;14.408;2022-11-20T08:51:54;27.23;;;15.50;;
44508;SDS011;30214;52.246;14.408;2022-11-20T08:54:25;24.67;;;15.48;;
44508;SDS011;30214;52.246;14.408;2022-11-20T08:56:53;25.38;;;15.07;;
44508;SDS011;30214;52.246;14.408;2022-11-20T08:59:20;26.48;;;15.00;;
44508;SDS011;30214;52.246;14.408;2022-11-20T09:01:48;23.90;;;15.00;;
44508;SDS011;30214;52.246;14.408;2022-11-20T09:04:17;23.80;;;14.27;;
44508;SDS011;30214;52.246;14.408;2022-11-20T09:06:44;26.52;;;14.35;;
44508;SDS011;30214;52.246;14.408;2022-11-20T09:09:17;26.85;;;14.93;;
44508;SDS011;30214;52.246;14.408;2022-11-20T09:11:44;24.48;;;15.18;;
44508;SDS011;30214;52.246;14.408;2022-11-20T09:14:11;28.10;;;16.13;;
44508;SDS011;30214;52.246;14.408;2022-11-20T09:16:39;26.88;;;15.52;;
44508;SDS011;30214;52.246;14.408;2022-11-20T09:19:06;24.27;;;15.38;;
44508;SDS011;30214;52.246;14.408;2022-11-20T09:21:33;28.30;;;15.60;;
44508;SDS011;30214;52.246;14.408;2022-11-20T09:24:00;25.27;;;15.25;;
44508;SDS011;30214;52.246;14.408;2022-11-20T09:26:32;24.45;;;14.45;;
44508;SDS011;30214;52.246;14.408;2022-11-20T09:28:59;26.77;;;15.80;;
44508;SDS011;30214;52.246;14.408;2022-11-20T09:37:36;24.27;;;14.85;;
44508;SDS011;30214;52.246;14.408;2022-11-20T09:40:55;25.98;;;15.55;;
44508;SDS011;30214;52.246;14.408;2022-11-20T09:43:37;28.65;;;15.90;;
44508;SDS011;30214;52.246;14.408;2022-11-20T09:46:26;25.00;;;15.52;;
44508;SDS011;30214;52.246;14.408;2022-11-20T09:49:06;25.27;;;15.05;;
44508;SDS011;30214;52.246;14.408;2022-11-20T09:51:53;26.50;;;15.88;;
44508;SDS011;30214;52.246;14.408;2022-11-20T09:54:27;26.88;;;16.58;;
44508;SDS011;30214;52.246;14.408;2022-11-20T09:56:58;26.40;;;15.82;;
44508;SDS011;30214;52.246;14.408;2022-11-20T10:02:21;25.05;;;15.38;;
44508;SDS011;30214;52.246;14.408;2022-11-20T10:05:01;24.95;;;15.18;;
44508;SDS011;30214;52.246;14.408;2022-11-20T10:07:41;27.08;;;15.40;;
44508;SDS011;30214;52.246;14.408;2022-11-20T10:10:22;24.85;;;13.75;;
44508;SDS011;30214;52.246;14.408;2022-11-20T10:13:02;24.08;;;14.73;;
44508;SDS011;30214;52.246;14.408;2022-11-20T10:15:47;25.60;;;15.35;;
44508;SDS011;30214;52.246;14.408;2022-11-20T10:18:31;26.88;;;15.02;;
44508;SDS011;30214;52.246;14.408;2022-11-20T10:21:16;25.17;;;14.90;;
44508;SDS011;30214;52.246;14.408;2022-11-20T10:23:59;34.10;;;18.55;;
44508;SDS011;30214;52.246;14.408;2022-11-20T10:27:03;28.50;;;16.80;;
44508;SDS011;30214;52.246;14.408;2022-11-20T10:29:54;25.67;;;15.48;;
44508;SDS011;30214;52.246;14.408;2022-11-20T10:32:32;24.98;;;15.63;;
44508;SDS011;30214;52.246;14.408;2022-11-20T10:35:05;25.52;;;14.95;;
44508;SDS011;30214;52.246;14.408;2022-11-20T10:37:44;25.67;;;15.40;;
44508;SDS011;30214;52.246;14.408;2022-11-20T10:40:19;24.65;;;15.68;;
44508;SDS011;30214;52.246;14.408;2022-11-20T10:43:01;26.55;;;15.82;;
44508;SDS011;30214;52.246;14.408;2022-11-20T10:45:40;22.33;;;13.93;;
44508;SDS011;30214;52.246;14.408;2022-11-20T10:48:20;29.58;;;16.67;;
44508;SDS011;30214;52.246;14.408;2022-11-20T10:50:59;27.63;;;16.10;;
44508;SDS011;30214;52.246;14.408;2022-11-20T10:53:43;25.67;;;15.63;;
44508;SDS011;30214;52.246;14.408;2022-11-20T10:56:21;24.23;;;14.75;;
44508;SDS011;30214;52.246;14.408;2022-11-20T10:59:02;24.77;;;14.35;;
44508;SDS011;30214;52.246;14.408;2022-11-20T11:01:39;25.48;;;15.55;;
44508;SDS011;30214;52.246;14.408;2022-11-20T11:07:01;25.83;;;16.20;;
44508;SDS011;30214;52.246;14.408;2022-11-20T11:09:38;28.05;;;16.67;;
44508;SDS011;30214;52.246;14.408;2022-11-20T11:14:43;28.23;;;17.38;;
44508;SDS011;30214;52.246;14.408;2022-11-20T11:17:18;27.80;;;17.25;;
44508;SDS011;30214;52.246;14.408;2022-11-20T11:25:34;26.20;;;15.10;;
44508;SDS011;30214;52.246;14.408;2022-11-20T11:28:04;24.02;;;14.93;;
44508;SDS011;30214;52.246;14.408;2022-11-20T11:30:45;25.02;;;14.75;;
44508;SDS011;30214;52.246;14.408;2022-11-20T11:33:18;26.25;;;16.08;;
44508;SDS011;30214;52.246;14.408;2022-11-20T11:35:49;24.83;;;14.90;;
44508;SDS011;30214;52.246;14.408;2022-11-20T11:38:19;24.45;;;15.20;;
44508;SDS011;30214;52.246;14.408;2022-11-20T11:40:55;26.38;;;15.45;;
44508;SDS011;30214;52.246;14.408;2022-11-20T12:11:11;25.88;;;14.85;;
44508;SDS011;30214;52.246;14.408;2022-11-20T12:13:48;24.50;;;14.75;;
44508;SDS011;30214;52.246;14.408;2022-11-20T12:16:20;24.73;;;15.85;;
44508;SDS011;30214;52.246;14.408;2022-11-20T12:19:18;26.33;;;15.77;;
44508;SDS011;30214;52.246;14.408;2022-11-20T18:28:19;26.15;;;15.60;;
44508;SDS011;30214;52.246;14.408;2022-11-20T18:31:42;27.35;;;15.80;;
44508;SDS011;30214;52.246;14.408;2022-11-20T18:35:07;31.88;;;18.30;;
44508;SDS011;30214;52.246;14.408;2022-11-20T19:51:23;26.00;;;14.48;;
44508;SDS011;30214;52.246;14.408;2022-11-20T20:04:34;27.50;;;15.18;;
44508;SDS011;30214;52.246;14.408;2022-11-20T20:09:45;26.75;;;15.70;;
44508;SDS011;30214;52.246;14.408;2022-11-20T20:28:38;22.63;;;13.30;;
